FSIA/SEZ METAR and TAF weather

Enter ICAO airport designator
Station Type Date Time Source
FSIA METAR 2019/12/14 06:00 UTC NOAA

FSIA 140600Z 07007KT 9999 FEW020 30/24 Q1013 NOSIG


Station Type Date Time Source
FSIA Decoded METAR 2019/12/14 06:00 UTC NOAA

Seychelles Inter-National Airport, Seychelles (FSIA) 04-40S 055-31E 3M
Dec 14, 2019 - 01:00 AM EST / 2019.12.14 0600 UTC
Wind: from the ENE (070 degrees) at 8 MPH (7 KT):0
Visibility: greater than 7 mile(s):0
Sky conditions: mostly clear
Temperature: 86 F (30 C)
Heat index: 95.0 F (35.0 C):1
Dew Point: 75 F (24 C)
Relative Humidity: 70%
Pressure (altimeter): 29.91 in. Hg (1013 hPa)
ob: FSIA 140600Z 07007KT 9999 FEW020 30/24 Q1013 NOSIG
cycle: 6

Station Type Date Time Source
FSIA TAF 2019/12/14 06:12 UTC NOAA

TAF TAF FSIA 140504Z 1406/1506 VRB03KT 9999 FEW020
BECMG 1502/1504 28010KT SCT018

Example: see airport list